Map

Track Data

SID SEASON NUMBER BASIN SUBBASIN NAME ISO_TIME NATURE LAT LON WMO_WIND WMO_PRES WMO_AGENCY TRACK_TYPE DIST2LAND LANDFALL IFLAG USA_AGENCY USA_ATCF_ID USA_LAT USA_LON USA_RECORD USA_STATUS USA_WIND USA_PRES USA_SSHS USA_R34_NE USA_R34_SE USA_R34_SW USA_R34_NW USA_R50_NE USA_R50_SE USA_R50_SW USA_R50_NW USA_R64_NE USA_R64_SE USA_R64_SW USA_R64_NW USA_POCI USA_ROCI USA_RMW USA_EYE TOKYO_LAT TOKYO_LON TOKYO_GRADE TOKYO_WIND TOKYO_PRES TOKYO_R50_DIR TOKYO_R50_LONG TOKYO_R50_SHORT TOKYO_R30_DIR TOKYO_R30_LONG TOKYO_R30_SHORT TOKYO_LAND CMA_LAT CMA_LON CMA_CAT CMA_WIND CMA_PRES HKO_LAT HKO_LON HKO_CAT HKO_WIND HKO_PRES NEWDELHI_LAT NEWDELHI_LON NEWDELHI_GRADE NEWDELHI_WIND NEWDELHI_PRES NEWDELHI_CI NEWDELHI_DP NEWDELHI_POCI REUNION_LAT REUNION_LON REUNION_TYPE REUNION_WIND REUNION_PRES REUNION_TNUM REUNION_CI REUNION_RMW REUNION_R34_NE REUNION_R34_SE REUNION_R34_SW REUNION_R34_NW REUNION_R50_NE REUNION_R50_SE REUNION_R50_SW REUNION_R50_NW REUNION_R64_NE REUNION_R64_SE REUNION_R64_SW REUNION_R64_NW BOM_LAT BOM_LON BOM_TYPE BOM_WIND BOM_PRES BOM_TNUM BOM_CI BOM_RMW BOM_R34_NE BOM_R34_SE BOM_R34_SW BOM_R34_NW BOM_R50_NE BOM_R50_SE BOM_R50_SW BOM_R50_NW BOM_R64_NE BOM_R64_SE BOM_R64_SW BOM_R64_NW BOM_ROCI BOM_POCI BOM_EYE BOM_POS_METHOD BOM_PRES_METHOD NADI_LAT NADI_LON NADI_CAT NADI_WIND NADI_PRES WELLINGTON_LAT WELLINGTON_LON WELLINGTON_WIND WELLINGTON_PRES DS824_LAT DS824_LON DS824_STAGE DS824_WIND DS824_PRES TD9636_LAT TD9636_LON TD9636_STAGE TD9636_WIND TD9636_PRES TD9635_LAT TD9635_LON TD9635_WIND TD9635_PRES TD9635_ROCI NEUMANN_LAT NEUMANN_LON NEUMANN_CLASS NEUMANN_WIND NEUMANN_PRES MLC_LAT MLC_LON MLC_CLASS MLC_WIND MLC_PRES USA_GUST BOM_GUST BOM_GUST_PER REUNION_GUST REUNION_GUST_PER USA_SEAHGT USA_SEARAD_NE USA_SEARAD_SE USA_SEARAD_SW USA_SEARAD_NW STORM_SPEED STORM_DIR
1952269N13311 1952 71 NA NA DOG 1952-09-24 12:00:00 TS 12.6000 -48.7000 30 hurdat_atl main 933 923 O_____________ hurdat_atl AL071952 12.6000 -48.7000 TD 30 -1 9 291
1952269N13311 1952 71 NA NA DOG 1952-09-24 15:00:00 TS 12.7551 -49.1099 main 933 919 P_____________ AL071952 12.7551 -49.1099 TD 32 -1 8 291
1952269N13311 1952 71 NA NA DOG 1952-09-24 18:00:00 TS 12.9000 -49.5000 35 hurdat_atl main 925 921 O_____________ hurdat_atl AL071952 12.9000 -49.5000 TS 35 0 8 291
1952269N13311 1952 71 NA NA DOG 1952-09-24 21:00:00 TS 13.0349 -49.8576 main 919 919 P_____________ AL071952 13.0349 -49.8576 TS 37 0 7 294
1952269N13311 1952 71 NA NA DOG 1952-09-25 00:00:00 TS 13.2000 -50.2000 40 hurdat_atl main 927 922 O_____________ hurdat_atl AL071952 13.2000 -50.2000 TS 40 0 8 301
1952269N13311 1952 71 NA NA DOG 1952-09-25 03:00:00 TS 13.4350 -50.5500 main 928 928 P_____________ AL071952 13.4350 -50.5500 TS 45 0 8 306
1952269N13311 1952 71 NA NA DOG 1952-09-25 06:00:00 TS 13.7000 -50.9000 50 hurdat_atl main 945 941 O_____________ hurdat_atl AL071952 13.7000 -50.9000 TS 50 0 9 307
1952269N13311 1952 71 NA NA DOG 1952-09-25 09:00:00 TS 13.9500 -51.2650 main 961 957 P_____________ AL071952 13.9500 -51.2650 TS 50 0 8 306
1952269N13311 1952 71 NA NA DOG 1952-09-25 12:00:00 TS 14.2000 -51.6000 50 hurdat_atl main 972 969 O_____________ hurdat_atl AL071952 14.2000 -51.6000 TS 50 0 8 310
1952269N13311 1952 71 NA NA DOG 1952-09-25 15:00:00 TS 14.4499 -51.8726 main 984 984 P_____________ AL071952 14.4499 -51.8726 TS 50 0 7 316
1952269N13311 1952 71 NA NA DOG 1952-09-25 18:00:00 TS 14.7000 -52.1000 50 hurdat_atl main 1012 1012 O_____________ hurdat_atl AL071952 14.7000 -52.1000 TS 50 0 7 320
1952269N13311 1952 71 NA NA DOG 1952-09-25 21:00:00 TS 14.9500 -52.3076 main 1029 1029 P_____________ AL071952 14.9500 -52.3076 TS 52 0 6 322
1952269N13311 1952 71 NA NA DOG 1952-09-26 00:00:00 TS 15.2000 -52.5000 55 hurdat_atl main 1050 1041 O_____________ hurdat_atl AL071952 15.2000 -52.5000 TS 55 0 6 323
1952269N13311 1952 71 NA NA DOG 1952-09-26 03:00:00 TS 15.4500 -52.6926 main 1041 1034 P_____________ AL071952 15.4500 -52.6926 TS 55 0 6 322
1952269N13311 1952 71 NA NA DOG 1952-09-26 06:00:00 TS 15.7000 -52.9000 55 hurdat_atl main 1040 1034 O_____________ hurdat_atl AL071952 15.7000 -52.9000 TS 55 0 7 320
1952269N13311 1952 71 NA NA DOG 1952-09-26 09:00:00 TS 15.9575 -53.1350 main 1040 1027 P_____________ AL071952 15.9575 -53.1350 TS 55 0 7 316
1952269N13311 1952 71 NA NA DOG 1952-09-26 12:00:00 TS 16.2000 -53.4000 55 hurdat_atl main 1027 1014 O_____________ hurdat_atl AL071952 16.2000 -53.4000 TS 55 0 7 310
1952269N13311 1952 71 NA NA DOG 1952-09-26 15:00:00 TS 16.4075 -53.6926 main 1014 1004 P_____________ AL071952 16.4075 -53.6926 TS 57 0 7 305
1952269N13311 1952 71 NA NA DOG 1952-09-26 18:00:00 TS 16.6000 -54.0000 60 998 hurdat_atl main 1004 995 O_____________ hurdat_atl AL071952 16.6000 -54.0000 TS 60 998 0 7 303
1952269N13311 1952 71 NA NA DOG 1952-09-26 21:00:00 TS 16.7925 -54.3076 main 995 987 P_____________ AL071952 16.7925 -54.3076 TS 60 0 7 305
1952269N13311 1952 71 NA NA DOG 1952-09-27 00:00:00 TS 17.0000 -54.6000 60 hurdat_atl main 987 980 O_____________ hurdat_atl AL071952 17.0000 -54.6000 TS 60 0 7 310
1952269N13311 1952 71 NA NA DOG 1952-09-27 03:00:00 TS 17.2425 -54.8650 main 981 981 P_____________ AL071952 17.2425 -54.8650 TS 57 0 7 316
1952269N13311 1952 71 NA NA DOG 1952-09-27 06:00:00 TS 17.5000 -55.1000 55 hurdat_atl main 992 992 O_____________ hurdat_atl AL071952 17.5000 -55.1000 TS 55 0 7 319
1952269N13311 1952 71 NA NA DOG 1952-09-27 09:00:00 TS 17.7350 -55.3076 main 995 995 P_____________ AL071952 17.7350 -55.3076 TS 50 0 6 323
1952269N13311 1952 71 NA NA DOG 1952-09-27 12:00:00 TS 18.0000 -55.5000 45 1002 hurdat_atl main 1009 1009 O_____________ hurdat_atl AL071952 18.0000 -55.5000 TS 45 1002 0 7 328
1952269N13311 1952 71 NA NA DOG 1952-09-27 15:00:00 TS 18.3425 -55.7000 main 1024 1023 P_____________ AL071952 18.3425 -55.7000 TS 45 1001 0 8 332
1952269N13311 1952 71 NA NA DOG 1952-09-27 18:00:00 TS 18.7000 -55.9000 45 1001 hurdat_atl main 1023 1002 O_____________ hurdat_atl AL071952 18.7000 -55.9000 TS 45 1001 0 8 330
1952269N13311 1952 71 NA NA DOG 1952-09-27 21:00:00 TS 19.0075 -56.1001 main 1002 982 P_____________ AL071952 19.0075 -56.1001 TS 42 0 7 328
1952269N13311 1952 71 NA NA DOG 1952-09-28 00:00:00 TS 19.3000 -56.3000 40 hurdat_atl main 983 964 O_____________ hurdat_atl AL071952 19.3000 -56.3000 TS 40 0 7 327
1952269N13311 1952 71 NA NA DOG 1952-09-28 03:00:00 TS 19.6075 -56.5075 main 966 948 P_____________ AL071952 19.6075 -56.5075 TS 40 0 7 328
1952269N13311 1952 71 NA NA DOG 1952-09-28 06:00:00 TS 19.9000 -56.7000 40 hurdat_atl main 949 941 O_____________ hurdat_atl AL071952 19.9000 -56.7000 TS 40 0 6 331
1952269N13311 1952 71 NA NA DOG 1952-09-28 09:00:00 TS 20.1649 -56.8426 main 945 929 P_____________ AL071952 20.1649 -56.8426 TS 40 0 6 330
1952269N13311 1952 71 NA NA DOG 1952-09-28 12:00:00 TS 20.4000 -57.0000 40 1001 hurdat_atl main 929 911 O_____________ hurdat_atl AL071952 20.4000 -57.0000 TS 40 1001 0 6 320
1952269N13311 1952 71 NA NA DOG 1952-09-28 15:00:00 TS 20.6150 -57.2425 main 914 889 P_____________ AL071952 20.6150 -57.2425 TS 37 0 6 311
1952269N13311 1952 71 NA NA DOG 1952-09-28 18:00:00 TS 20.8000 -57.5000 35 hurdat_atl main 889 873 O_____________ hurdat_atl AL071952 20.8000 -57.5000 TS 35 0 6 308
1952269N13311 1952 71 NA NA DOG 1952-09-28 21:00:00 TS 20.9650 -57.7150 main 876 860 P_____________ AL071952 20.9650 -57.7150 TS 35 0 5 309
1952269N13311 1952 71 NA NA DOG 1952-09-29 00:00:00 TS 21.1000 -57.9000 35 hurdat_atl main 860 850 O_____________ hurdat_atl AL071952 21.1000 -57.9000 TS 35 0 4 308
1952269N13311 1952 71 NA NA DOG 1952-09-29 03:00:00 TS 21.2150 -58.0575 main 844 838 P_____________ AL071952 21.2150 -58.0575 TS 35 0 3 305
1952269N13311 1952 71 NA NA DOG 1952-09-29 06:00:00 TS 21.3000 -58.2000 35 hurdat_atl main 838 829 O_____________ hurdat_atl AL071952 21.3000 -58.2000 TS 35 0 3 298
1952269N13311 1952 71 NA NA DOG 1952-09-29 09:00:00 TS 21.3575 -58.3425 main 833 814 P_____________ AL071952 21.3575 -58.3425 TS 32 -1 3 290
1952269N13311 1952 71 NA NA DOG 1952-09-29 12:00:00 TS 21.4000 -58.5000 30 hurdat_atl main 814 795 O_____________ hurdat_atl AL071952 21.4000 -58.5000 TD 30 -1 3 284
1952269N13311 1952 71 NA NA DOG 1952-09-29 15:00:00 TS 21.4425 -58.7000 main 795 781 P_____________ AL071952 21.4425 -58.7000 TD 30 -1 4 285
1952269N13311 1952 71 NA NA DOG 1952-09-29 18:00:00 TS 21.5000 -58.9000 30 1009 hurdat_atl main 781 767 O_____________ hurdat_atl AL071952 21.5000 -58.9000 TD 30 1009 -1 4 294
1952269N13311 1952 71 NA NA DOG 1952-09-29 21:00:00 TS 21.5925 -59.0650 main 767 763 P_____________ AL071952 21.5925 -59.0650 TD 30 -1 3 305
1952269N13311 1952 71 NA NA DOG 1952-09-30 00:00:00 TS 21.7000 -59.2000 30 hurdat_atl main 763 754 O_____________ hurdat_atl AL071952 21.7000 -59.2000 TD 30 -1 3 313
1952269N13311 1952 71 NA NA DOG 1952-09-30 03:00:00 TS 21.8000 -59.3075 main 759 750 P_____________ AL071952 21.8000 -59.3075 TD 30 -1 3 317
1952269N13311 1952 71 NA NA DOG 1952-09-30 06:00:00 TS 21.9000 -59.4000 30 hurdat_atl main 756 753 O_____________ hurdat_atl AL071952 21.9000 -59.4000 TD 30 -1 3 319
1952269N13311 1952 71 NA NA DOG 1952-09-30 09:00:00 TS 22.0075 -59.5000 main 753 750 P_____________ AL071952 22.0075 -59.5000 TD 27 -1 3 317
1952269N13311 1952 71 NA NA DOG 1952-09-30 12:00:00 TS 22.1000 -59.6000 25 1008 hurdat_atl main 750 741 O_____________ hurdat_atl AL071952 22.1000 -59.6000 TD 25 1008 -1 2 309
1952269N13311 1952 71 NA NA DOG 1952-09-30 15:00:00 TS 22.1600 -59.7000 main 747 739 P_____________ AL071952 22.1600 -59.7000 TD 25 -1 2 299
1952269N13311 1952 71 NA NA DOG 1952-09-30 18:00:00 TS 22.2000 -59.8000 25 hurdat_atl main 739 O_____________ hurdat_atl AL071952 22.2000 -59.8000 TD 25 -1 2 294

About IBTrACS Database

This database is a web-friendly format of International Best Track Archive for Climate Stewardship (IBTrACS), a global best track data archive curated by NOAA dating back to 1842.

Updated: 2021-10-19